Time;durP1;ratioP1;P1;durP2;ratioP2;P2;SDS_P1;SDS_P2;PMS_P1;PMS_P2;Temp;Humidity;BMP_temperature;BMP_pressure;BME280_temperature;BME280_humidity;BME280_pressure;Samples;Min_cycle;Max_cycle;Signal;HPM_P1;HPM_P2
2022/03/14 00:01:21;;;;;;;59.03;24.83;;;;;;;;;;6215992;28;20049;-63
2022/03/14 00:04:22;;;;;;;57.70;25.08;;;;;;;;;;6214790;28;20049;-64
2022/03/14 00:07:22;;;;;;;56.63;24.40;;;;;;;;;;6211775;28;20141;-63
2022/03/14 00:10:23;;;;;;;58.40;25.13;;;;;;;;;;6213505;28;20053;-64
2022/03/14 00:13:25;;;;;;;55.53;25.15;;;;;;;;;;6213604;28;20480;-63
2022/03/14 00:16:26;;;;;;;56.97;25.83;;;;;;;;;;6214573;28;20072;-64
2022/03/14 00:19:29;;;;;;;50.67;23.80;;;;;;;;;;6216133;28;20314;-64
2022/03/14 00:22:31;;;;;;;55.63;25.73;;;;;;;;;;6215176;28;20100;-64
2022/03/14 00:25:33;;;;;;;58.55;25.48;;;;;;;;;;6212162;28;20079;-67
2022/03/14 00:28:34;;;;;;;57.17;24.88;;;;;;;;;;6213834;28;20569;-63
2022/03/14 00:31:35;;;;;;;53.47;24.98;;;;;;;;;;6215941;28;20038;-64
2022/03/14 00:34:35;;;;;;;54.63;25.35;;;;;;;;;;6217246;28;20050;-65
2022/03/14 00:37:38;;;;;;;58.53;25.08;;;;;;;;;;6216784;28;20137;-64
2022/03/14 00:40:38;;;;;;;60.13;26.90;;;;;;;;;;6218388;28;20085;-63
2022/03/14 00:43:39;;;;;;;56.17;27.35;;;;;;;;;;6218091;28;20046;-64
2022/03/14 00:46:40;;;;;;;64.80;28.88;;;;;;;;;;6213479;28;20062;-65
2022/03/14 00:49:41;;;;;;;60.83;26.67;;;;;;;;;;6216456;28;20132;-64
2022/03/14 00:52:42;;;;;;;57.25;26.13;;;;;;;;;;6212722;28;20448;-64
2022/03/14 00:55:42;;;;;;;57.92;25.63;;;;;;;;;;6213669;28;20042;-63
2022/03/14 00:58:43;;;;;;;59.70;26.50;;;;;;;;;;6214799;28;20141;-65
2022/03/14 01:01:44;;;;;;;62.72;26.77;;;;;;;;;;6214904;28;20411;-68
2022/03/14 01:04:44;;;;;;;56.50;26.02;;;;;;;;;;6214608;28;20069;-66
2022/03/14 01:07:45;;;;;;;61.88;28.23;;;;;;;;;;6213844;28;20058;-65
2022/03/14 01:10:48;;;;;;;61.15;26.08;;;;;;;;;;6218304;28;20050;-64
2022/03/14 01:13:48;;;;;;;64.05;27.17;;;;;;;;;;6215872;28;20046;-63
2022/03/14 01:16:49;;;;;;;60.83;25.65;;;;;;;;;;6211547;28;20053;-63
2022/03/14 01:19:50;;;;;;;56.67;25.40;;;;;;;;;;6214280;28;20124;-65
2022/03/14 01:22:54;;;;;;;58.42;25.40;;;;;;;;;;6212238;28;20052;-63
2022/03/14 01:25:54;;;;;;;56.53;23.88;;;;;;;;;;6213068;28;20049;-64
2022/03/14 01:28:55;;;;;;;56.47;24.73;;;;;;;;;;6207965;28;20436;-64
2022/03/14 01:31:56;;;;;;;61.22;25.73;;;;;;;;;;6214192;28;20137;-64
2022/03/14 01:34:57;;;;;;;50.88;23.02;;;;;;;;;;6211969;28;21096;-64
2022/03/14 01:37:57;;;;;;;61.28;24.70;;;;;;;;;;6211454;28;20140;-62
2022/03/14 01:40:58;;;;;;;53.08;24.35;;;;;;;;;;6212632;28;20738;-69
2022/03/14 01:44:00;;;;;;;58.42;24.77;;;;;;;;;;6214713;28;20459;-61
2022/03/14 01:47:00;;;;;;;53.05;23.20;;;;;;;;;;6211576;28;20489;-64
2022/03/14 01:50:01;;;;;;;53.83;23.73;;;;;;;;;;6216037;28;20052;-63
2022/03/14 01:53:02;;;;;;;53.58;23.88;;;;;;;;;;6213680;28;20100;-63
2022/03/14 01:56:04;;;;;;;51.97;23.55;;;;;;;;;;6212975;28;20460;-63
2022/03/14 01:59:06;;;;;;;49.72;23.00;;;;;;;;;;6213962;28;20072;-64
2022/03/14 02:02:06;;;;;;;59.55;23.38;;;;;;;;;;6218260;28;20139;-63
2022/03/14 02:05:08;;;;;;;46.45;21.55;;;;;;;;;;6218608;28;20049;-67
2022/03/14 02:08:08;;;;;;;50.78;22.70;;;;;;;;;;6218040;28;20050;-63
2022/03/14 02:11:09;;;;;;;51.55;22.52;;;;;;;;;;6215658;28;20046;-64
2022/03/14 02:14:09;;;;;;;46.95;22.13;;;;;;;;;;6213561;28;20049;-61
2022/03/14 02:17:12;;;;;;;56.03;24.00;;;;;;;;;;6212177;28;20053;-62
2022/03/14 02:20:13;;;;;;;56.50;23.20;;;;;;;;;;6211612;28;20136;-64
2022/03/14 02:23:14;;;;;;;55.47;24.63;;;;;;;;;;6211667;28;20054;-63
2022/03/14 02:26:14;;;;;;;53.63;24.60;;;;;;;;;;6210665;28;20053;-61
2022/03/14 02:29:15;;;;;;;52.78;22.92;;;;;;;;;;6211870;28;20054;-64
2022/03/14 02:32:15;;;;;;;60.65;22.42;;;;;;;;;;6212981;28;20141;-66
2022/03/14 02:35:17;;;;;;;46.55;22.95;;;;;;;;;;6211643;28;20103;-69
2022/03/14 02:38:19;;;;;;;55.25;23.80;;;;;;;;;;6210709;28;20129;-63
2022/03/14 02:41:23;;;;;;;55.40;25.55;;;;;;;;;;6211890;28;20050;-68
2022/03/14 02:44:23;;;;;;;52.85;24.98;;;;;;;;;;6213230;28;20045;-65
2022/03/14 02:47:24;;;;;;;54.85;24.80;;;;;;;;;;6214515;28;20053;-63
2022/03/14 02:50:24;;;;;;;57.50;24.90;;;;;;;;;;6212363;28;20049;-63
2022/03/14 02:53:25;;;;;;;59.72;25.10;;;;;;;;;;6216949;28;20057;-65
2022/03/14 02:56:26;;;;;;;61.05;26.77;;;;;;;;;;6211873;28;20389;-64
2022/03/14 02:59:27;;;;;;;58.70;25.60;;;;;;;;;;6211914;28;20123;-62
2022/03/14 03:02:28;;;;;;;55.80;26.55;;;;;;;;;;6208542;28;20124;-64
2022/03/14 03:05:32;;;;;;;56.63;25.95;;;;;;;;;;6210849;28;20144;-63
2022/03/14 03:08:32;;;;;;;60.60;27.08;;;;;;;;;;6211979;28;20112;-62
2022/03/14 03:11:33;;;;;;;58.25;25.40;;;;;;;;;;6211858;28;20084;-64
2022/03/14 03:14:34;;;;;;;56.55;26.27;;;;;;;;;;6212248;28;20137;-62
2022/03/14 03:17:35;;;;;;;59.78;26.95;;;;;;;;;;6207636;28;20049;-64
2022/03/14 03:20:35;;;;;;;57.45;27.25;;;;;;;;;;6211304;28;20255;-65
2022/03/14 03:23:36;;;;;;;62.53;27.52;;;;;;;;;;6210404;28;20076;-65
2022/03/14 03:26:38;;;;;;;58.55;27.25;;;;;;;;;;6208855;28;20153;-63
2022/03/14 03:29:39;;;;;;;55.67;25.97;;;;;;;;;;6210956;28;20137;-61
2022/03/14 03:32:39;;;;;;;59.47;25.65;;;;;;;;;;6211386;28;20077;-68
2022/03/14 03:35:40;;;;;;;61.80;26.80;;;;;;;;;;6210493;28;20045;-62
2022/03/14 03:38:41;;;;;;;54.95;26.10;;;;;;;;;;6211658;28;20054;-65
2022/03/14 03:41:42;;;;;;;58.42;26.30;;;;;;;;;;6211295;28;20053;-68
2022/03/14 03:44:42;;;;;;;61.97;27.33;;;;;;;;;;6211090;28;20054;-63
2022/03/14 03:47:43;;;;;;;57.88;25.88;;;;;;;;;;6211878;28;20053;-62
2022/03/14 03:50:45;;;;;;;60.15;25.55;;;;;;;;;;6210978;28;20530;-62
2022/03/14 03:53:46;;;;;;;52.70;25.25;;;;;;;;;;6210135;28;20065;-69
2022/03/14 03:56:47;;;;;;;62.67;27.58;;;;;;;;;;6209515;28;20431;-65
2022/03/14 03:59:48;;;;;;;58.97;26.33;;;;;;;;;;6212402;28;20143;-64
2022/03/14 04:02:50;;;;;;;62.50;27.65;;;;;;;;;;6211953;28;20496;-63
2022/03/14 04:05:50;;;;;;;61.80;28.45;;;;;;;;;;6213879;28;20084;-67
2022/03/14 04:08:52;;;;;;;57.97;27.67;;;;;;;;;;6214356;28;20053;-67
2022/03/14 04:11:53;;;;;;;57.63;26.05;;;;;;;;;;6214254;28;20115;-64
2022/03/14 04:14:58;;;;;;;59.95;27.70;;;;;;;;;;6214994;28;20046;-63
2022/03/14 04:18:00;;;;;;;60.60;27.30;;;;;;;;;;6215637;28;20720;-61
2022/03/14 04:21:00;;;;;;;66.28;28.02;;;;;;;;;;6213005;28;20132;-63
2022/03/14 04:24:04;;;;;;;63.70;27.00;;;;;;;;;;6216100;28;20050;-68
2022/03/14 04:27:05;;;;;;;62.40;28.05;;;;;;;;;;6213553;28;20046;-61
2022/03/14 04:30:07;;;;;;;62.03;28.20;;;;;;;;;;6214543;28;20120;-63
2022/03/14 04:33:08;;;;;;;60.20;27.90;;;;;;;;;;6216364;28;20504;-63
2022/03/14 04:36:09;;;;;;;61.67;28.90;;;;;;;;;;6213791;28;20507;-63
2022/03/14 04:39:09;;;;;;;61.95;28.02;;;;;;;;;;6214984;28;20053;-63
2022/03/14 04:42:10;;;;;;;63.40;27.35;;;;;;;;;;6215456;28;20049;-63
2022/03/14 04:45:11;;;;;;;64.38;28.20;;;;;;;;;;6214355;28;20637;-64
2022/03/14 04:48:12;;;;;;;55.75;26.92;;;;;;;;;;6216006;28;20104;-65
2022/03/14 04:51:13;;;;;;;57.22;25.83;;;;;;;;;;6216368;28;20077;-66
2022/03/14 04:54:13;;;;;;;61.30;27.85;;;;;;;;;;6220028;28;20054;-63
2022/03/14 04:57:15;;;;;;;59.22;27.00;;;;;;;;;;6216965;28;20491;-63
2022/03/14 05:00:15;;;;;;;65.25;28.48;;;;;;;;;;6221071;28;20051;-63
2022/03/14 05:03:16;;;;;;;71.82;29.85;;;;;;;;;;6220089;28;20148;-63
2022/03/14 05:06:17;;;;;;;63.38;27.63;;;;;;;;;;6215267;28;20049;-63
2022/03/14 05:09:17;;;;;;;67.55;28.50;;;;;;;;;;6213204;28;20049;-64
2022/03/14 05:12:19;;;;;;;65.90;28.13;;;;;;;;;;6212593;28;20468;-64
2022/03/14 05:15:20;;;;;;;66.03;26.92;;;;;;;;;;6212404;28;20124;-63
2022/03/14 05:18:20;;;;;;;64.53;27.65;;;;;;;;;;6213454;28;20042;-63
2022/03/14 05:21:21;;;;;;;72.05;30.33;;;;;;;;;;6210614;28;20553;-65
2022/03/14 05:24:22;;;;;;;76.18;30.83;;;;;;;;;;6211939;28;20470;-64
2022/03/14 05:27:22;;;;;;;69.00;29.05;;;;;;;;;;6211252;28;20620;-64
2022/03/14 05:30:23;;;;;;;75.63;30.33;;;;;;;;;;6213342;28;20058;-63
2022/03/14 05:33:24;;;;;;;135.85;43.28;;;;;;;;;;6209815;28;20091;-67
2022/03/14 05:36:25;;;;;;;100.93;36.38;;;;;;;;;;6211090;28;20050;-65
2022/03/14 05:39:25;;;;;;;88.93;34.75;;;;;;;;;;6212269;28;20046;-63
2022/03/14 05:42:26;;;;;;;97.40;34.13;;;;;;;;;;6217557;28;20050;-62
2022/03/14 05:45:27;;;;;;;104.85;35.42;;;;;;;;;;6212028;28;20559;-64
2022/03/14 05:48:28;;;;;;;115.65;40.55;;;;;;;;;;6210308;28;20476;-64
2022/03/14 05:51:28;;;;;;;105.40;36.95;;;;;;;;;;6210119;28;20056;-63
2022/03/14 05:54:29;;;;;;;84.85;32.78;;;;;;;;;;6210824;28;20163;-64
2022/03/14 05:57:30;;;;;;;91.25;36.33;;;;;;;;;;6209110;28;20063;-65
2022/03/14 06:00:30;;;;;;;87.10;33.08;;;;;;;;;;6215744;28;20053;-63
2022/03/14 06:03:31;;;;;;;89.88;34.70;;;;;;;;;;6218423;28;20133;-64
2022/03/14 06:06:34;;;;;;;88.70;34.55;;;;;;;;;;6217092;28;20403;-67
2022/03/14 06:09:34;;;;;;;101.28;38.22;;;;;;;;;;6216262;28;20057;-64
2022/03/14 06:12:35;;;;;;;98.45;35.70;;;;;;;;;;6212929;28;20530;-63
2022/03/14 06:15:36;;;;;;;102.07;39.17;;;;;;;;;;6215277;28;20132;-64
2022/03/14 06:18:37;;;;;;;110.78;39.05;;;;;;;;;;6216451;28;20050;-63
2022/03/14 06:21:39;;;;;;;113.18;44.42;;;;;;;;;;6217556;28;20552;-62
2022/03/14 06:24:39;;;;;;;105.47;44.22;;;;;;;;;;6215930;28;20073;-65
2022/03/14 06:27:40;;;;;;;101.30;40.10;;;;;;;;;;6216885;28;20046;-61
2022/03/14 06:30:41;;;;;;;95.32;39.47;;;;;;;;;;6216445;28;20488;-62
2022/03/14 06:33:41;;;;;;;84.35;36.17;;;;;;;;;;6215225;28;20181;-61
2022/03/14 06:36:44;;;;;;;85.63;37.20;;;;;;;;;;6213879;28;20069;-67
2022/03/14 06:39:44;;;;;;;;;;;;;;;;;;6214279;28;20437;-64
2022/03/14 06:42:49;;;;;;;104.20;42.50;;;;;;;;;;6213150;28;19925;-65
2022/03/14 06:45:50;;;;;;;103.05;43.15;;;;;;;;;;6210869;28;20424;-65
2022/03/14 06:48:51;;;;;;;98.10;42.10;;;;;;;;;;6211782;28;20145;-67
2022/03/14 06:51:52;;;;;;;89.47;38.42;;;;;;;;;;6209004;28;20507;-65
2022/03/14 06:54:52;;;;;;;94.10;40.00;;;;;;;;;;6209522;28;20448;-66
2022/03/14 06:57:54;;;;;;;96.88;40.40;;;;;;;;;;6212699;28;20199;-66
2022/03/14 07:00:57;;;;;;;76.10;32.75;;;;;;;;;;6211167;28;20046;-66
2022/03/14 07:03:57;;;;;;;78.63;31.50;;;;;;;;;;6213212;28;20109;-66
2022/03/14 07:07:03;;;;;;;71.63;30.92;;;;;;;;;;6211732;28;20054;-65
2022/03/14 07:10:04;;;;;;;71.10;31.38;;;;;;;;;;6211054;28;20057;-65
2022/03/14 07:13:05;;;;;;;79.22;33.95;;;;;;;;;;6213207;28;20038;-67
2022/03/14 07:16:06;;;;;;;75.13;32.80;;;;;;;;;;6211088;28;20172;-62
2022/03/14 07:19:07;;;;;;;77.22;33.17;;;;;;;;;;6212557;28;20061;-68
2022/03/14 07:22:07;;;;;;;83.03;33.15;;;;;;;;;;6211185;28;20064;-67
2022/03/14 07:25:08;;;;;;;82.70;35.88;;;;;;;;;;6211998;28;20074;-67
2022/03/14 07:28:09;;;;;;;84.70;34.22;;;;;;;;;;6213279;28;20480;-66
2022/03/14 07:31:10;;;;;;;76.80;33.30;;;;;;;;;;6223982;28;20147;-65
2022/03/14 07:34:11;;;;;;;87.43;36.97;;;;;;;;;;6215119;28;20034;-66
2022/03/14 07:37:11;;;;;;;73.25;33.80;;;;;;;;;;6216597;28;20092;-62
2022/03/14 07:40:14;;;;;;;82.47;35.80;;;;;;;;;;6216884;28;20083;-65
2022/03/14 07:43:16;;;;;;;88.07;36.90;;;;;;;;;;6217792;28;20050;-65
2022/03/14 07:46:18;;;;;;;84.20;36.53;;;;;;;;;;6214053;28;20428;-67
2022/03/14 07:49:20;;;;;;;77.88;35.15;;;;;;;;;;6216783;28;20103;-67
2022/03/14 07:52:21;;;;;;;72.70;33.17;;;;;;;;;;6216032;28;20115;-67
2022/03/14 07:55:22;;;;;;;62.88;28.27;;;;;;;;;;6213838;28;20053;-67
2022/03/14 07:58:23;;;;;;;64.20;29.27;;;;;;;;;;6215785;28;20200;-67
2022/03/14 08:01:24;;;;;;;61.25;27.73;;;;;;;;;;6216565;28;20050;-64
2022/03/14 08:04:24;;;;;;;64.45;29.40;;;;;;;;;;6220172;28;20060;-66
2022/03/14 08:07:26;;;;;;;63.22;27.85;;;;;;;;;;6218239;28;20046;-66
2022/03/14 08:10:29;;;;;;;57.43;27.87;;;;;;;;;;6220901;28;20045;-68
2022/03/14 08:13:31;;;;;;;55.50;26.05;;;;;;;;;;6220124;28;20050;-68
2022/03/14 08:16:32;;;;;;;60.67;26.70;;;;;;;;;;6218125;28;20038;-67
2022/03/14 08:19:34;;;;;;;58.28;25.58;;;;;;;;;;6218512;28;20495;-68
2022/03/14 08:22:36;;;;;;;57.15;25.52;;;;;;;;;;6211548;28;20416;-67
2022/03/14 08:25:37;;;;;;;55.03;26.33;;;;;;;;;;6213113;28;20073;-67
2022/03/14 08:28:42;;;;;;;56.05;27.60;;;;;;;;;;6212224;28;20515;-67
2022/03/14 08:31:43;;;;;;;56.72;25.70;;;;;;;;;;6210162;28;20412;-67
2022/03/14 08:34:44;;;;;;;56.65;26.52;;;;;;;;;;6215448;28;20050;-68
2022/03/14 08:37:47;;;;;;;56.03;25.90;;;;;;;;;;6207907;28;20088;-68
2022/03/14 08:40:47;;;;;;;51.40;24.73;;;;;;;;;;6211074;28;20081;-68
2022/03/14 08:43:48;;;;;;;53.83;25.52;;;;;;;;;;6215244;28;20054;-67
2022/03/14 08:46:49;;;;;;;49.05;23.52;;;;;;;;;;6209893;28;20176;-68
2022/03/14 08:49:49;;;;;;;56.00;26.45;;;;;;;;;;6211945;28;20050;-68
2022/03/14 08:52:52;;;;;;;51.30;24.60;;;;;;;;;;6217582;28;20883;-68
2022/03/14 08:55:55;;;;;;;42.00;20.77;;;;;;;;;;6217463;28;20080;-68
2022/03/14 08:58:55;;;;;;;47.60;21.92;;;;;;;;;;6217234;28;20054;-67
2022/03/14 09:01:56;;;;;;;57.30;24.77;;;;;;;;;;6218257;28;20057;-68
2022/03/14 09:04:56;;;;;;;80.90;30.98;;;;;;;;;;6218048;28;20073;-66
2022/03/14 09:07:57;;;;;;;44.58;22.15;;;;;;;;;;6213456;28;20419;-67
2022/03/14 09:11:00;;;;;;;42.67;20.30;;;;;;;;;;6212869;28;20549;-67
2022/03/14 09:14:01;;;;;;;48.95;21.77;;;;;;;;;;6215821;28;20500;-67
2022/03/14 09:17:04;;;;;;;58.00;24.60;;;;;;;;;;6216419;28;20048;-67
2022/03/14 09:20:05;;;;;;;97.70;36.53;;;;;;;;;;6217458;28;20053;-68
2022/03/14 09:23:10;;;;;;;36.78;16.80;;;;;;;;;;6214987;28;20046;-68
2022/03/14 09:26:11;;;;;;;65.93;29.33;;;;;;;;;;6214416;28;20084;-68
2022/03/14 09:29:12;;;;;;;39.00;19.45;;;;;;;;;;6213067;28;20510;-68
2022/03/14 09:32:14;;;;;;;58.00;27.15;;;;;;;;;;6214516;28;20450;-68
2022/03/14 09:35:15;;;;;;;39.30;19.13;;;;;;;;;;6215119;28;20133;-68
2022/03/14 09:38:17;;;;;;;52.50;24.80;;;;;;;;;;6212768;28;20050;-68
2022/03/14 09:41:19;;;;;;;23.40;12.70;;;;;;;;;;6212439;28;20137;-68
2022/03/14 09:44:21;;;;;;;29.85;13.95;;;;;;;;;;6216262;28;20093;-68
2022/03/14 09:47:24;;;;;;;29.30;14.40;;;;;;;;;;6213778;28;20049;-68
2022/03/14 09:50:35;;;;;;;30.65;15.35;;;;;;;;;;6214710;28;20311;-68
2022/03/14 09:53:36;;;;;;;27.52;14.25;;;;;;;;;;6213505;28;20111;-68
2022/03/14 09:56:41;;;;;;;51.27;20.07;;;;;;;;;;6214255;28;20060;-68
2022/03/14 09:59:42;;;;;;;34.95;15.90;;;;;;;;;;6212575;28;20065;-68
2022/03/14 10:02:43;;;;;;;30.60;13.73;;;;;;;;;;6217439;28;20074;-68
2022/03/14 10:05:45;;;;;;;25.25;13.98;;;;;;;;;;6218653;28;20460;-68
2022/03/14 10:08:46;;;;;;;24.83;12.85;;;;;;;;;;6215284;28;20128;-68
2022/03/14 10:11:46;;;;;;;18.23;8.98;;;;;;;;;;6217878;28;20083;-68
2022/03/14 10:14:47;;;;;;;16.02;8.30;;;;;;;;;;6214266;28;20082;-68
2022/03/14 10:17:48;;;;;;;16.58;8.88;;;;;;;;;;6210926;28;20128;-67
2022/03/14 10:20:58;;;;;;;19.35;9.70;;;;;;;;;;6212716;28;20140;-68
2022/03/14 10:24:00;;;;;;;16.05;8.88;;;;;;;;;;6214544;28;20477;-68
2022/03/14 10:27:01;;;;;;;17.45;8.18;;;;;;;;;;6213282;28;20073;-68
2022/03/14 10:30:03;;;;;;;17.63;8.52;;;;;;;;;;6214957;28;20046;-68
2022/03/14 10:33:08;;;;;;;17.13;8.90;;;;;;;;;;6217494;28;20046;-68
2022/03/14 10:36:08;;;;;;;23.17;10.48;;;;;;;;;;6217264;28;20405;-68
2022/03/14 10:39:25;;;;;;;21.17;10.40;;;;;;;;;;6215133;28;20045;-68
2022/03/14 10:42:26;;;;;;;24.77;11.25;;;;;;;;;;6216854;28;20049;-68
2022/03/14 10:45:30;;;;;;;21.13;11.80;;;;;;;;;;6216228;28;20053;-68
2022/03/14 10:48:38;;;;;;;24.02;12.30;;;;;;;;;;6216428;28;20444;-68
2022/03/14 10:51:56;;;;;;;25.45;13.23;;;;;;;;;;6215942;28;20075;-69
2022/03/14 10:54:57;;;;;;;24.70;13.30;;;;;;;;;;6216994;28;20049;-68
2022/03/14 10:58:10;;;;;;;30.05;14.55;;;;;;;;;;6216269;28;20045;-69
2022/03/14 11:01:12;;;;;;;29.08;13.90;;;;;;;;;;6215021;28;20044;-68
2022/03/14 11:04:12;;;;;;;25.73;12.38;;;;;;;;;;6215895;28;20049;-68
2022/03/14 11:07:14;;;;;;;25.52;13.13;;;;;;;;;;6216819;28;20140;-68
2022/03/14 11:10:15;;;;;;;23.17;12.77;;;;;;;;;;6214003;28;20081;-68
2022/03/14 11:13:16;;;;;;;24.77;12.20;;;;;;;;;;6220990;28;20045;-68
2022/03/14 11:16:24;;;;;;;22.38;11.63;;;;;;;;;;6222182;28;20164;-68
2022/03/14 11:19:24;;;;;;;20.58;11.57;;;;;;;;;;6219830;28;20089;-69
2022/03/14 11:22:27;;;;;;;21.48;11.13;;;;;;;;;;6216885;28;20054;-71
2022/03/14 11:25:29;;;;;;;20.95;11.10;;;;;;;;;;6215532;28;20074;-70
2022/03/14 11:28:34;;;;;;;24.47;11.80;;;;;;;;;;6211129;28;20754;-68
2022/03/14 11:31:35;;;;;;;23.27;11.38;;;;;;;;;;6215678;28;20060;-68
2022/03/14 11:34:36;;;;;;;20.88;10.68;;;;;;;;;;6216118;28;20065;-68
2022/03/14 11:37:37;;;;;;;17.70;9.30;;;;;;;;;;6218060;28;20192;-68
2022/03/14 11:40:37;;;;;;;20.67;10.27;;;;;;;;;;6202567;28;20416;-66
2022/03/14 11:43:40;;;;;;;22.50;10.52;;;;;;;;;;6210650;28;20069;-67
2022/03/14 11:46:41;;;;;;;;;;;;;;;;;;6211189;28;20050;-66
2022/03/14 11:49:43;;;;;;;21.83;10.50;;;;;;;;;;6205078;28;19956;-69
2022/03/14 11:52:44;;;;;;;20.38;9.85;;;;;;;;;;6209413;28;20082;-68
2022/03/14 11:55:55;;;;;;;31.50;12.65;;;;;;;;;;6209042;28;20091;-68
2022/03/14 11:59:01;;;;;;;26.65;12.00;;;;;;;;;;6206825;28;20053;-69
2022/03/14 12:02:05;;;;;;;20.70;10.88;;;;;;;;;;6209033;28;20053;-69
2022/03/14 12:05:06;;;;;;;19.60;9.77;;;;;;;;;;6209324;28;20100;-68
2022/03/14 12:08:10;;;;;;;26.05;11.02;;;;;;;;;;6210601;28;20050;-68
2022/03/14 12:11:26;;;;;;;18.77;10.05;;;;;;;;;;6206581;28;20046;-68
2022/03/14 12:14:33;;;;;;;19.15;10.50;;;;;;;;;;6204897;28;20062;-68
2022/03/14 12:17:35;;;;;;;19.83;10.25;;;;;;;;;;6203201;28;20600;-69
2022/03/14 12:20:35;;;;;;;20.67;10.32;;;;;;;;;;6203161;28;20145;-69
2022/03/14 12:23:36;;;;;;;18.13;9.10;;;;;;;;;;6203141;28;20246;-67
2022/03/14 12:26:43;;;;;;;22.38;9.88;;;;;;;;;;6207672;28;20488;-68
2022/03/14 12:29:50;;;;;;;20.00;9.70;;;;;;;;;;6207320;28;20042;-68
2022/03/14 12:32:55;;;;;;;20.35;10.30;;;;;;;;;;6209683;28;20081;-68
2022/03/14 12:35:57;;;;;;;16.00;7.60;;;;;;;;;;6208102;28;20073;-69
2022/03/14 12:39:06;;;;;;;16.33;7.73;;;;;;;;;;6207386;28;20081;-68
2022/03/14 12:42:23;;;;;;;14.00;8.00;;;;;;;;;;6209698;28;20046;-69
2022/03/14 12:45:29;;;;;;;14.25;8.32;;;;;;;;;;6207497;28;20064;-68
2022/03/14 12:48:32;;;;;;;18.23;9.50;;;;;;;;;;6204394;28;20153;-68
2022/03/14 12:51:38;;;;;;;18.88;8.40;;;;;;;;;;6204720;28;20763;-69
2022/03/14 12:54:40;;;;;;;21.23;10.15;;;;;;;;;;6204275;28;20073;-69
2022/03/14 12:57:41;;;;;;;18.70;9.55;;;;;;;;;;6204169;28;20120;-66
2022/03/14 13:00:42;;;;;;;17.65;8.55;;;;;;;;;;6204450;28;20077;-66
2022/03/14 13:03:44;;;;;;;14.88;8.32;;;;;;;;;;6206564;28;20508;-68
2022/03/14 13:06:51;;;;;;;19.35;8.25;;;;;;;;;;6209877;28;20074;-68
2022/03/14 13:09:54;;;;;;;16.13;7.55;;;;;;;;;;6206079;28;20052;-68
2022/03/14 13:12:55;;;;;;;15.85;7.75;;;;;;;;;;6209343;28;20633;-68
2022/03/14 13:16:06;;;;;;;18.08;9.18;;;;;;;;;;6210131;28;20093;-68
2022/03/14 13:19:18;;;;;;;16.83;7.47;;;;;;;;;;6205487;28;20180;-68
2022/03/14 13:22:20;;;;;;;15.43;7.80;;;;;;;;;;6209219;28;20068;-68
2022/03/14 13:25:34;;;;;;;;;;;;;;;;;;6209498;28;20753;-67
2022/03/14 13:28:37;;;;;;;17.98;7.93;;;;;;;;;;6207065;28;21126;-67
2022/03/14 13:31:44;;;;;;;16.70;7.93;;;;;;;;;;6207603;28;20077;-68
2022/03/14 13:35:10;;;;;;;18.92;9.55;;;;;;;;;;6208605;28;20041;-67
2022/03/14 13:38:10;;;;;;;16.13;8.32;;;;;;;;;;6208999;28;20470;-68
2022/03/14 13:41:17;;;;;;;17.40;8.32;;;;;;;;;;6205884;28;20052;-67
2022/03/14 13:44:20;;;;;;;16.77;8.38;;;;;;;;;;6208165;28;20053;-68
2022/03/14 13:47:23;;;;;;;15.52;8.02;;;;;;;;;;6208667;28;20054;-68
2022/03/14 13:50:26;;;;;;;16.02;8.18;;;;;;;;;;6206820;28;20485;-68
2022/03/14 13:53:26;;;;;;;20.42;8.93;;;;;;;;;;6207080;28;20060;-68
2022/03/14 13:56:34;;;;;;;17.70;9.15;;;;;;;;;;6204824;28;20512;-68
2022/03/14 13:59:39;;;;;;;19.05;9.27;;;;;;;;;;6202607;28;20054;-68
2022/03/14 14:02:41;;;;;;;18.27;9.15;;;;;;;;;;6207563;28;20129;-68
2022/03/14 14:05:42;;;;;;;17.85;9.10;;;;;;;;;;6208102;28;20042;-68
2022/03/14 14:08:43;;;;;;;16.13;7.93;;;;;;;;;;6206438;28;20100;-67
2022/03/14 14:12:15;;;;;;;17.48;7.57;;;;;;;;;;6207937;28;20401;-68
2022/03/14 14:15:16;;;;;;;16.17;8.13;;;;;;;;;;6205476;28;20800;-68
2022/03/14 14:18:18;;;;;;;16.00;8.40;;;;;;;;;;6209348;28;20149;-68
2022/03/14 14:21:22;;;;;;;16.98;8.52;;;;;;;;;;6201403;28;20134;-67
2022/03/14 14:24:25;;;;;;;14.32;7.65;;;;;;;;;;6199822;28;20053;-68
2022/03/14 14:27:26;;;;;;;17.40;8.43;;;;;;;;;;6203188;28;20148;-67
2022/03/14 14:30:43;;;;;;;18.27;7.90;;;;;;;;;;6200681;28;20073;-68
2022/03/14 14:33:43;;;;;;;15.95;7.38;;;;;;;;;;6200430;28;20108;-68
2022/03/14 14:36:44;;;;;;;18.13;8.05;;;;;;;;;;6199867;28;20486;-69
2022/03/14 14:39:45;;;;;;;13.85;7.53;;;;;;;;;;6198787;28;20734;-68
2022/03/14 14:42:46;;;;;;;16.33;8.30;;;;;;;;;;6201952;28;20053;-69
2022/03/14 14:45:48;;;;;;;15.60;8.23;;;;;;;;;;6197256;28;20085;-69
2022/03/14 14:48:51;;;;;;;19.35;9.27;;;;;;;;;;6198705;28;20302;-69
2022/03/14 14:51:52;;;;;;;20.73;9.05;;;;;;;;;;6201767;28;20156;-69
2022/03/14 14:54:58;;;;;;;17.45;8.63;;;;;;;;;;6201176;28;20456;-69
2022/03/14 14:57:59;;;;;;;18.15;8.38;;;;;;;;;;6203262;28;20172;-68
2022/03/14 15:00:59;;;;;;;20.02;9.05;;;;;;;;;;6200367;28;20053;-69
2022/03/14 15:04:00;;;;;;;18.67;9.57;;;;;;;;;;6201557;28;20149;-69
2022/03/14 15:07:02;;;;;;;20.13;9.18;;;;;;;;;;6202726;28;20054;-68
2022/03/14 15:10:04;;;;;;;18.38;9.02;;;;;;;;;;6200255;28;20140;-68
2022/03/14 15:13:05;;;;;;;17.38;8.30;;;;;;;;;;6204043;28;20046;-68
2022/03/14 15:16:06;;;;;;;20.77;9.18;;;;;;;;;;6202396;28;20087;-69
2022/03/14 15:19:06;;;;;;;18.00;8.95;;;;;;;;;;6200950;28;20393;-69
2022/03/14 15:22:07;;;;;;;18.52;9.10;;;;;;;;;;6201949;28;20471;-68
2022/03/14 15:25:10;;;;;;;16.65;9.10;;;;;;;;;;6202032;28;20422;-68
2022/03/14 15:28:11;;;;;;;17.95;8.93;;;;;;;;;;6200417;28;20042;-68
2022/03/14 15:31:12;;;;;;;18.00;9.80;;;;;;;;;;6199377;28;20050;-68
2022/03/14 15:34:13;;;;;;;21.17;9.50;;;;;;;;;;6202998;28;20173;-69
2022/03/14 15:37:14;;;;;;;25.75;9.73;;;;;;;;;;6200553;28;20121;-68
2022/03/14 15:40:16;;;;;;;17.85;10.35;;;;;;;;;;6199930;28;20058;-69
2022/03/14 15:43:17;;;;;;;;;;;;;;;;;;6204064;28;20780;-69
2022/03/14 15:46:17;;;;;;;19.58;11.63;;;;;;;;;;6198160;28;19929;-68
2022/03/14 15:49:18;;;;;;;22.98;12.60;;;;;;;;;;6199881;28;20058;-69
2022/03/14 15:52:21;;;;;;;27.42;13.18;;;;;;;;;;6202676;28;20136;-69
2022/03/14 15:55:21;;;;;;;;;;;;;;;;;;6201338;28;20093;-68
2022/03/14 15:58:22;;;;;;;21.15;12.13;;;;;;;;;;6205815;28;20705;-69
2022/03/14 16:01:23;;;;;;;18.00;9.90;;;;;;;;;;6203272;28;20148;-68
2022/03/14 16:04:24;;;;;;;27.65;12.23;;;;;;;;;;6205290;28;20500;-68
2022/03/14 16:07:25;;;;;;;36.17;15.57;;;;;;;;;;6203312;28;20046;-68
2022/03/14 16:10:27;;;;;;;;;;;;;;;;;;6205408;28;20154;-62
2022/03/14 16:13:31;;;;;;;52.40;22.83;;;;;;;;;;6205691;28;19964;-68
2022/03/14 16:16:32;;;;;;;50.33;23.80;;;;;;;;;;6206670;28;20049;-70
2022/03/14 16:19:33;;;;;;;34.78;16.77;;;;;;;;;;6210242;28;20771;-70
2022/03/14 16:22:35;;;;;;;33.42;16.77;;;;;;;;;;6210499;28;20057;-69
2022/03/14 16:25:35;;;;;;;25.52;13.90;;;;;;;;;;6208924;28;20845;-69
2022/03/14 16:28:36;;;;;;;37.58;18.27;;;;;;;;;;6207797;28;20050;-69
2022/03/14 16:31:38;;;;;;;45.85;22.42;;;;;;;;;;6210246;28;20145;-70
2022/03/14 16:34:39;;;;;;;53.80;32.92;;;;;;;;;;6207973;28;20081;-67
2022/03/14 16:37:40;;;;;;;48.17;27.38;;;;;;;;;;6208504;28;20052;-71
2022/03/14 16:40:41;;;;;;;92.82;46.42;;;;;;;;;;6209338;28;20045;-69
2022/03/14 16:43:42;;;;;;;93.22;43.08;;;;;;;;;;6207248;28;20084;-69
2022/03/14 16:46:45;;;;;;;75.45;33.92;;;;;;;;;;6205148;28;20508;-66
2022/03/14 16:49:47;;;;;;;80.57;39.88;;;;;;;;;;6205141;28;20065;-68
2022/03/14 16:52:48;;;;;;;68.25;31.00;;;;;;;;;;6205658;28;20147;-67
2022/03/14 16:55:49;;;;;;;71.78;37.47;;;;;;;;;;6203984;28;20038;-73
2022/03/14 16:58:49;;;;;;;53.40;23.70;;;;;;;;;;6206422;28;20053;-72
2022/03/14 17:01:50;;;;;;;53.33;27.63;;;;;;;;;;6208956;28;20510;-70
2022/03/14 17:04:53;;;;;;;66.05;33.65;;;;;;;;;;6208200;28;20049;-70
2022/03/14 17:07:53;;;;;;;57.15;28.50;;;;;;;;;;6208535;28;20049;-70
2022/03/14 17:10:54;;;;;;;59.85;28.40;;;;;;;;;;6208680;28;20084;-70
2022/03/14 17:13:55;;;;;;;51.35;22.73;;;;;;;;;;6209456;28;20057;-71
2022/03/14 17:16:56;;;;;;;51.88;21.08;;;;;;;;;;6207821;28;20462;-70
2022/03/14 17:19:57;;;;;;;61.73;24.43;;;;;;;;;;6207534;28;20054;-73
2022/03/14 17:23:00;;;;;;;73.65;28.65;;;;;;;;;;6208972;28;20144;-72
2022/03/14 17:26:01;;;;;;;93.63;34.88;;;;;;;;;;6209315;28;20065;-74
2022/03/14 17:29:02;;;;;;;84.63;32.90;;;;;;;;;;6208243;28;20050;-76
2022/03/14 17:32:03;;;;;;;92.78;38.83;;;;;;;;;;6211188;28;20136;-69
2022/03/14 17:35:05;;;;;;;103.95;40.30;;;;;;;;;;6207881;28;20072;-69
2022/03/14 17:38:06;;;;;;;98.97;38.22;;;;;;;;;;6205296;28;20702;-70
2022/03/14 17:41:07;;;;;;;92.05;36.83;;;;;;;;;;6203721;28;20112;-71
2022/03/14 17:44:07;;;;;;;102.75;42.00;;;;;;;;;;6202622;28;20052;-68